Flight Track Log - Related Links

Times and Time Zones

All times are in EDT time to prevent confusion due to time zone crossing. See the SWA2521 flight status page for this flight to view local times or setup timezone preferences in your user account.

Time Position Orientation Groundspeed Altitude Reporting Facility
EDT Latitude Longitude Course Direction KTS MPH feet Rate Location/Type
Sat 09:05:38 PM 37.7200 -122.2456 211° Southwest 158 182 35,000  Level Oakland Center
Sat 09:06:39 PM 37.6842 -122.2722 210° Southwest 234 269 2,800 -14,410 Descending Oakland Center
Sat 09:07:40 PM 37.6358 -122.2114 135° Southeast 245 282 5,700 2,926 Climbing Oakland Center
Sat 09:08:40 PM 37.5769 -122.1478 139° Southeast 272 313 8,700 2,361 Climbing Oakland Center
Sat 09:09:42 PM 37.5033 -122.0978 152° Southeast 294 338 10,500 2,115 Climbing Oakland Center
Sat 09:10:42 PM 37.4200 -122.0389 151° Southeast 338 389 13,000 2,380 Climbing Oakland Center
Sat 09:11:43 PM 37.3344 -121.9775 150° Southeast 352 405 15,300 2,410 Climbing Oakland Center
Sat 09:12:44 PM 37.2272 -121.9017 151° Southeast 366 421 17,900 2,262 Climbing Oakland Center
Sat 09:13:45 PM 37.1344 -121.8381 151° Southeast 377 434 19,900 1,820 Climbing Oakland Center
Sat 09:14:46 PM 37.0511 -121.7494 140° Southeast 390 449 21,600 1,770 Climbing Oakland Center
Sat 09:15:47 PM 36.9742 -121.6472 133° Southeast 402 463 23,500 1,623 Climbing Oakland Center
Sat 09:16:48 PM 36.8933 -121.5428 134° Southeast 413 475 24,900 1,388 Climbing Oakland Center
Sat 09:17:48 PM 36.8133 -121.4381 134° Southeast 428 493 26,300 1,438 Climbing Oakland Center
Sat 09:18:49 PM 36.7292 -121.3286 134° Southeast 435 501 27,800 1,426 Climbing Oakland Center
Sat 09:19:50 PM 36.6431 -121.2189 134° Southeast 439 505 29,200 1,328 Climbing Oakland Center
Sat 09:20:51 PM 36.5556 -121.1092 135° Southeast 443 510 30,500 1,623 Climbing Oakland Center
Sat 09:21:52 PM 36.4703 -120.9994 134° Southeast 442 509 32,500 1,770 Climbing Oakland Center
Sat 09:22:53 PM 36.3878 -120.8958 135° Southeast 424 488 34,100 1,230 Climbing Oakland Center
Sat 09:23:54 PM 36.3056 -120.7928 135° Southeast 420 483 35,000 446 Climbing Oakland Center
Sat 09:24:54 PM 36.2075 -120.6692 134° Southeast 418 481 35,000  Level Oakland Center
Sat 09:25:55 PM 36.1247 -120.5683 135° Southeast 417 480 35,000  Level Oakland Center
Sat 09:26:56 PM 36.0428 -120.4650 134° Southeast 418 481 35,000  Level Oakland Center
Sat 09:27:57 PM 35.9606 -120.3631 135° Southeast 417 480 35,000  Level Oakland Center
Sat 09:28:58 PM 35.8769 -120.2617 135° Southeast 418 481 35,000  Level Oakland Center
Sat 09:29:59 PM 35.7947 -120.1597 135° Southeast 417 480 35,000  Level Oakland Center
Sat 09:30:59 PM 35.7097 -120.0533 135° Southeast 427 491 35,000 -397 Level Oakland Center
Sat 09:32:00 PM 35.6206 -119.9517 137° Southeast 433 498 34,200 -783 Descending Oakland Center
Sat 09:32:31 PM 35.5828 -119.9225 148° Southeast 419 482 33,800 -903 Descending Los Angeles Center
Sat 09:33:33 PM 35.4878 -119.8386 144° Southeast 416 479 32,800 -1,024 Descending Los Angeles Center
Sat 09:34:34 PM 35.3722 -119.7406 145° Southeast 418 481 31,700 -976 Descending Los Angeles Center
Sat 09:35:36 PM 35.2747 -119.6558 145° Southeast 422 486 30,800 -878 Descending Los Angeles Center
Sat 09:36:37 PM 35.1733 -119.5686 145° Southeast 432 497 29,900 -934 Descending Los Angeles Center
Sat 09:37:38 PM 35.0722 -119.4833 145° Southeast 439 505 28,900 -1,024 Descending Los Angeles Center
Sat 09:38:40 PM 34.9725 -119.4000 146° Southeast 436 502 27,800 -1,024 Descending Los Angeles Center
Sat 09:39:41 PM 34.8756 -119.3178 145° Southeast 429 494 26,800 -976 Descending Los Angeles Center
Sat 09:40:43 PM 34.7800 -119.2361 145° Southeast 422 486 25,800 -1,171 Descending Los Angeles Center
Sat 09:41:44 PM 34.6858 -119.1575 146° Southeast 413 475 24,400 -1,770 Descending Los Angeles Center
Sat 09:42:45 PM 34.5931 -119.0797 145° Southeast 401 461 22,200 -2,146 Descending Los Angeles Center
Sat 09:43:47 PM 34.5053 -119.0067 146° Southeast 377 434 20,000 -2,341 Descending Los Angeles Center
Sat 09:44:48 PM 34.4069 -118.9244 145° Southeast 354 407 17,400 -2,195 Descending Los Angeles Center
Sat 09:45:50 PM 34.3256 -118.8703 151° Southeast 326 375 15,500 -1,902 Descending Los Angeles Center
Sat 09:46:51 PM 34.2369 -118.8378 163° South 329 379 13,500 -2,164 Descending Los Angeles Center
Sat 09:47:52 PM 34.1492 -118.8053 163° South 332 382 11,100 -1,707 Descending Los Angeles Center
Sat 09:48:54 PM 34.0603 -118.7725 163° South 323 372 10,000 -532 Descending Los Angeles Center
Sat 09:49:56 PM 34.0300 -118.6753 111° Southeast 297 342 10,000 -878 Level Los Angeles Center
Sat 09:50:57 PM 34.0214 -118.5742 96° East 302 348 8,200 -1,426 Descending Los Angeles Center
Sat 09:51:58 PM 34.0114 -118.4742 97° East 300 345 7,100 -1,220 Descending Los Angeles Center
Sat 09:53:00 PM 34.0189 -118.3925 84° East 278 320 5,700 -1,317 Descending Los Angeles Center
Sat 09:54:01 PM 34.0258 -118.2969 85° East 283 326 4,400 -1,122 Descending Los Angeles Center
Sat 09:55:03 PM 33.9925 -118.2347 123° Southeast 249 287 3,400 -1,122 Descending Los Angeles Center
Sat 09:56:04 PM 33.9625 -118.2894 237° Southwest 213 245 2,100 -1,122 Descending Los Angeles Center
Sat 09:57:06 PM 33.9581 -118.3467 265° West 189 217 1,100 -829 Descending Los Angeles Center
Sat 09:58:07 PM 33.9542 -118.3906 264° West 155 178 400 -393 Descending Los Angeles Center
Sat 09:59:08 PM 33.9475 -118.4322 259° West 150 173 300 -98 Descending Los Angeles Center
Sat 10:01:00 PM 33.9425 -118.4081 239° Southwest  Level Estimated

Login

Don't have an account? Register now (free) for customized features, flight alerts, and more!